Time;durP1;ratioP1;P1;durP2;ratioP2;P2;SDS_P1;SDS_P2;PMS_P1;PMS_P2;Temp;Humidity;BMP_temperature;BMP_pressure;BME280_temperature;BME280_humidity;BME280_pressure;Samples;Min_cycle;Max_cycle;Signal;HPM_P1;HPM_P2
2023/05/05 00:01:51;;;;;;;8.88;1.70;;;19.40;1.00;;;;;;4806615;29;20046;-43
2023/05/05 00:04:21;;;;;;;3.53;1.55;;;19.40;1.00;;;;;;4806345;29;20043;-42
2023/05/05 00:06:48;;;;;;;3.25;1.08;;;19.40;1.00;;;;;;4806566;29;20503;-43
2023/05/05 00:09:15;;;;;;;5.05;2.05;;;19.40;1.00;;;;;;4806079;29;20470;-42
2023/05/05 00:11:41;;;;;;;2.22;1.40;;;19.40;1.00;;;;;;4853553;23;20081;-42
2023/05/05 00:14:11;;;;;;;4.47;1.40;;;19.40;1.00;;;;;;4827298;29;20054;-44
2023/05/05 00:16:38;;;;;;;5.18;1.60;;;19.40;1.00;;;;;;4837164;29;20042;-42
2023/05/05 00:19:05;;;;;;;3.25;1.60;;;19.40;1.00;;;;;;4840578;29;20106;-44
2023/05/05 00:21:32;;;;;;;2.97;1.30;;;19.40;1.00;;;;;;4835044;29;20069;-43
2023/05/05 00:23:59;;;;;;;2.65;1.48;;;19.40;1.00;;;;;;4842376;29;20046;-44
2023/05/05 00:26:25;;;;;;;1.80;1.60;;;19.40;1.00;;;;;;4841073;29;20046;-42
2023/05/05 00:28:52;;;;;;;1.67;1.30;;;19.40;1.00;;;;;;4835461;29;20415;-43
2023/05/05 00:31:20;;;;;;;2.47;1.50;;;19.40;1.00;;;;;;4842062;29;20570;-43
2023/05/05 00:33:47;;;;;;;2.42;1.50;;;19.40;1.00;;;;;;4842223;29;20077;-42
2023/05/05 00:36:14;;;;;;;4.18;1.55;;;19.40;1.00;;;;;;4840939;29;20050;-42
2023/05/05 00:38:41;;;;;;;3.08;1.33;;;19.30;1.00;;;;;;4841043;29;20151;-43
2023/05/05 00:43:42;;;;;;;2.55;1.95;;;19.30;1.00;;;;;;4830222;29;20069;-42
2023/05/05 00:46:20;;;;;;;4.03;1.83;;;19.30;1.00;;;;;;4831726;29;20184;-42
2023/05/05 00:48:48;;;;;;;4.28;1.80;;;19.30;1.00;;;;;;4837811;29;20414;-42
2023/05/05 00:51:16;;;;;;;3.13;1.50;;;19.30;1.00;;;;;;4833106;29;20051;-42
2023/05/05 00:53:44;;;;;;;3.78;1.90;;;19.30;1.00;;;;;;4841947;29;20128;-42
2023/05/05 00:56:11;;;;;;;4.07;1.30;;;19.30;1.00;;;;;;4840480;29;20115;-42
2023/05/05 00:58:42;;;;;;;2.20;1.95;;;19.30;1.00;;;;;;4840538;29;20058;-42
2023/05/05 01:01:10;;;;;;;3.70;2.10;;;19.30;1.00;;;;;;4833464;29;20498;-42
2023/05/05 01:03:38;;;;;;;4.72;1.50;;;19.30;1.00;;;;;;4840575;29;20068;-43
2023/05/05 01:06:38;;;;;;;1.50;1.23;;;19.30;1.00;;;;;;4841561;29;20494;-43
2023/05/05 01:09:31;;;;;;;3.25;1.08;;;19.30;1.00;;;;;;4840439;29;20521;-43
2023/05/05 01:15:17;;;;;;;3.58;1.30;;;19.30;1.00;;;;;;4952468;23;20518;-44
2023/05/05 01:17:58;;;;;;;1.30;1.10;;;19.30;1.00;;;;;;4830342;29;20110;-43
2023/05/05 01:20:51;;;;;;;2.95;1.30;;;19.30;1.00;;;;;;4825509;29;20054;-43
2023/05/05 01:23:41;;;;;;;1.52;0.90;;;19.20;1.00;;;;;;4832492;29;20126;-43
2023/05/05 01:26:38;;;;;;;2.10;1.50;;;19.30;1.00;;;;;;4832718;29;20046;-43
2023/05/05 01:29:05;;;;;;;3.40;1.60;;;19.20;1.00;;;;;;4833015;29;20058;-44
2023/05/05 01:31:43;;;;;;;3.50;1.42;;;19.20;1.00;;;;;;4832578;29;20072;-44
2023/05/05 01:34:15;;;;;;;2.15;1.35;;;19.20;1.00;;;;;;4841679;29;20129;-43
2023/05/05 01:36:48;;;;;;;1.85;1.50;;;19.20;1.00;;;;;;4841226;29;20453;-44
2023/05/05 01:39:16;;;;;;;4.63;1.20;;;19.20;1.00;;;;;;4840170;29;20058;-43
2023/05/05 01:41:46;;;;;;;3.20;1.38;;;19.20;1.00;;;;;;4841625;29;20480;-44
2023/05/05 01:44:15;;;;;;;2.13;1.58;;;19.20;1.00;;;;;;4840046;29;20418;-44
2023/05/05 01:47:00;;;;;;;3.83;1.50;;;19.20;1.00;;;;;;4830826;29;20122;-44
2023/05/05 01:49:27;;;;;;;1.83;1.50;;;19.20;1.00;;;;;;4821966;29;20047;-43
2023/05/05 01:51:56;;;;;;;1.40;1.02;;;19.20;1.00;;;;;;4836061;29;20057;-44
2023/05/05 01:54:24;;;;;;;2.88;1.73;;;19.20;1.00;;;;;;4828086;29;20099;-43
2023/05/05 01:56:53;;;;;;;2.08;1.55;;;19.20;1.00;;;;;;4818670;29;20050;-44
2023/05/05 01:59:21;;;;;;;3.28;1.85;;;19.20;1.00;;;;;;4821604;29;20154;-43
2023/05/05 02:01:49;;;;;;;3.25;1.67;;;19.20;1.00;;;;;;4821954;29;20054;-44
2023/05/05 02:04:17;;;;;;;2.85;1.67;;;19.20;1.00;;;;;;4815244;29;20053;-43
2023/05/05 02:06:46;;;;;;;3.90;2.17;;;19.20;1.00;;;;;;4821464;29;20058;-43
2023/05/05 02:09:13;;;;;;;3.08;1.40;;;19.20;1.00;;;;;;4821611;29;20050;-43
2023/05/05 02:11:41;;;;;;;2.25;1.67;;;19.20;1.00;;;;;;4821608;29;20137;-44
2023/05/05 02:14:10;;;;;;;3.75;2.13;;;19.20;1.00;;;;;;4821424;29;20095;-44
2023/05/05 02:16:37;;;;;;;1.85;1.20;;;19.20;1.00;;;;;;4816504;29;20087;-44
2023/05/05 02:19:04;;;;;;;2.92;1.70;;;19.20;1.00;;;;;;4813676;29;20129;-44
2023/05/05 02:21:32;;;;;;;3.00;1.50;;;19.20;1.00;;;;;;4815312;29;20042;-44
2023/05/05 02:24:00;;;;;;;1.92;1.35;;;19.20;1.00;;;;;;4821261;29;20058;-46
2023/05/05 02:26:30;;;;;;;4.53;2.45;;;19.20;1.00;;;;;;4814969;29;20048;-43
2023/05/05 02:29:00;;;;;;;4.90;2.10;;;19.20;1.00;;;;;;4822865;29;20099;-43
2023/05/05 02:31:29;;;;;;;2.75;2.03;;;19.20;1.00;;;;;;4822833;29;20070;-44
2023/05/05 02:33:58;;;;;;;3.25;1.27;;;19.10;1.00;;;;;;4814516;29;20046;-43
2023/05/05 02:36:28;;;;;;;2.58;1.83;;;19.20;1.00;;;;;;4820873;29;20418;-43
2023/05/05 02:39:06;;;;;;;2.95;1.17;;;19.20;1.00;;;;;;4822597;29;20054;-43
2023/05/05 02:41:38;;;;;;;4.88;1.27;;;19.20;1.00;;;;;;4824688;29;20056;-44
2023/05/05 02:44:13;;;;;;;2.78;1.50;;;19.10;1.00;;;;;;4824433;29;20050;-43
2023/05/05 02:46:41;;;;;;;2.45;1.50;;;19.10;1.00;;;;;;4819005;29;20495;-44
2023/05/05 02:49:08;;;;;;;2.65;1.80;;;19.10;1.00;;;;;;4811677;29;20047;-43
2023/05/05 02:51:37;;;;;;;6.60;1.73;;;19.10;1.00;;;;;;4816887;29;20074;-43
2023/05/05 02:54:09;;;;;;;7.53;1.90;;;19.10;1.00;;;;;;4824039;29;20169;-42
2023/05/05 02:56:41;;;;;;;2.97;1.55;;;19.10;1.00;;;;;;4817487;29;20409;-43
2023/05/05 02:59:30;;;;;;;2.03;1.38;;;19.10;1.00;;;;;;4825660;29;20460;-45
2023/05/05 03:02:17;;;;;;;4.15;1.48;;;19.10;1.00;;;;;;4824643;29;20460;-46
2023/05/05 03:04:53;;;;;;;3.88;1.55;;;19.10;1.00;;;;;;4817768;29;20038;-44
2023/05/05 03:07:25;;;;;;;3.75;1.52;;;19.10;1.00;;;;;;4824317;29;20617;-44
2023/05/05 03:10:14;;;;;;;3.15;1.60;;;19.10;1.00;;;;;;4824236;29;20050;-43
2023/05/05 03:12:52;;;;;;;3.67;2.08;;;19.10;1.00;;;;;;4824291;29;20046;-43
2023/05/05 03:15:46;;;;;;;5.38;1.92;;;19.10;1.00;;;;;;4823626;29;20042;-43
2023/05/05 03:18:17;;;;;;;3.00;1.58;;;19.10;1.00;;;;;;4824290;29;20579;-42
2023/05/05 03:20:49;;;;;;;2.85;1.55;;;19.10;1.00;;;;;;4818902;29;20043;-44
2023/05/05 03:23:19;;;;;;;4.90;1.70;;;19.10;1.00;;;;;;4822200;29;20146;-43
2023/05/05 03:25:49;;;;;;;1.95;1.45;;;19.10;1.00;;;;;;4823637;29;20562;-43
2023/05/05 03:28:26;;;;;;;2.83;1.55;;;19.10;1.00;;;;;;4823944;29;20438;-45
2023/05/05 03:30:54;;;;;;;4.25;2.08;;;19.00;1.00;;;;;;4823630;29;20061;-43
2023/05/05 03:33:21;;;;;;;2.63;1.70;;;19.00;1.00;;;;;;4823641;29;20046;-44
2023/05/05 03:35:48;;;;;;;3.40;1.80;;;19.00;1.00;;;;;;4823641;29;20052;-43
2023/05/05 03:38:16;;;;;;;2.45;1.80;;;19.00;1.00;;;;;;4823771;29;20054;-43
2023/05/05 03:40:44;;;;;;;2.22;1.63;;;19.00;1.00;;;;;;4823647;29;20053;-43
2023/05/05 03:43:16;;;;;;;5.28;2.08;;;19.00;1.00;;;;;;4823429;29;20047;-43
2023/05/05 03:45:42;;;;;;;5.38;2.03;;;19.00;1.00;;;;;;4823222;29;20110;-44
2023/05/05 03:48:10;;;;;;;3.47;1.80;;;19.00;1.00;;;;;;4897195;23;20058;-42
2023/05/05 03:50:39;;;;;;;4.85;2.05;;;19.00;1.00;;;;;;4817184;29;20039;-44
2023/05/05 03:53:07;;;;;;;3.10;2.20;;;19.00;1.00;;;;;;4820096;29;20464;-44
2023/05/05 03:55:34;;;;;;;3.35;1.40;;;19.00;1.00;;;;;;4808546;29;20556;-44
2023/05/05 03:58:00;;;;;;;5.05;1.70;;;19.00;1.00;;;;;;4823391;29;20054;-44
2023/05/05 04:00:27;;;;;;;3.47;1.80;;;19.00;1.00;;;;;;4823227;29;20052;-43
2023/05/05 04:02:54;;;;;;;5.13;2.42;;;19.00;1.00;;;;;;4823330;29;20525;-43
2023/05/05 04:05:23;;;;;;;6.30;2.22;;;19.00;1.00;;;;;;4821131;29;20048;-43
2023/05/05 04:07:50;;;;;;;4.15;1.90;;;19.00;1.00;;;;;;4822805;29;20046;-44
2023/05/05 04:10:17;;;;;;;4.10;2.00;;;19.00;1.00;;;;;;4822955;29;20442;-43
2023/05/05 04:12:43;;;;;;;2.63;1.58;;;19.00;1.00;;;;;;4823202;29;20054;-43
2023/05/05 04:15:10;;;;;;;3.72;2.03;;;19.00;1.00;;;;;;4822239;29;20092;-43
2023/05/05 04:17:41;;;;;;;3.30;1.70;;;19.00;1.00;;;;;;4934292;23;20045;31
2023/05/05 04:20:08;;;;;;;3.75;2.38;;;19.00;1.00;;;;;;4810361;29;20138;-45
2023/05/05 04:22:36;;;;;;;2.92;2.50;;;19.00;1.00;;;;;;4799054;29;20048;-45
2023/05/05 04:25:03;;;;;;;3.30;2.15;;;19.00;1.00;;;;;;4815812;29;20141;-44
2023/05/05 04:27:30;;;;;;;3.33;1.60;;;18.90;1.00;;;;;;4803313;29;20061;-45
2023/05/05 04:29:58;;;;;;;4.63;1.80;;;19.00;1.00;;;;;;4800130;29;20226;-44
2023/05/05 04:32:25;;;;;;;3.20;2.38;;;18.90;1.00;;;;;;4804685;29;20046;-45
2023/05/05 04:34:53;;;;;;;2.30;1.67;;;18.90;1.00;;;;;;4804239;29;20081;-43
2023/05/05 04:37:21;;;;;;;3.70;2.28;;;18.90;1.00;;;;;;4812267;29;20071;-43
2023/05/05 04:39:48;;;;;;;2.22;1.63;;;18.90;1.00;;;;;;4804697;29;20055;-44
2023/05/05 04:42:14;;;;;;;4.55;1.95;;;18.90;1.00;;;;;;4805682;29;20146;-43
2023/05/05 04:44:41;;;;;;;3.13;1.95;;;18.90;1.00;;;;;;4804029;29;20058;-44
2023/05/05 04:47:08;;;;;;;6.30;2.50;;;18.90;1.00;;;;;;4805814;29;20043;-44
2023/05/05 04:49:35;;;;;;;4.35;2.20;;;18.90;1.00;;;;;;4865764;23;20054;-43
2023/05/05 04:52:02;;;;;;;4.15;1.90;;;18.90;1.00;;;;;;4829979;29;20062;-44
2023/05/05 04:54:28;;;;;;;5.28;1.92;;;18.90;1.00;;;;;;4831758;29;20050;-44
2023/05/05 04:56:56;;;;;;;8.00;2.85;;;18.90;1.00;;;;;;4840473;29;20049;-44
2023/05/05 04:59:23;;;;;;;3.50;1.98;;;18.90;1.00;;;;;;4834712;29;20121;-45
2023/05/05 05:01:50;;;;;;;3.15;2.17;;;18.90;1.00;;;;;;4839801;29;20054;-44
2023/05/05 05:04:17;;;;;;;3.90;2.40;;;18.90;1.00;;;;;;4840528;29;20475;-46
2023/05/05 05:06:44;;;;;;;6.30;2.65;;;18.90;1.00;;;;;;4832334;29;20049;-45
2023/05/05 05:09:11;;;;;;;4.22;2.25;;;18.90;1.00;;;;;;4840695;29;20043;-44
2023/05/05 05:11:38;;;;;;;3.67;2.35;;;18.90;1.00;;;;;;4840383;29;20057;-45
2023/05/05 05:14:05;;;;;;;4.15;1.77;;;18.90;1.00;;;;;;4840598;29;20543;-44
2023/05/05 05:16:35;;;;;;;5.03;1.92;;;18.90;1.00;;;;;;4841678;29;20054;-45
2023/05/05 05:19:01;;;;;;;5.10;2.60;;;18.90;1.00;;;;;;4840523;29;20110;-44
2023/05/05 05:21:30;;;;;;;4.40;2.28;;;18.90;1.00;;;;;;4840128;29;20054;-45
2023/05/05 05:23:58;;;;;;;3.40;2.25;;;18.90;1.00;;;;;;4834619;29;20065;-45
2023/05/05 05:26:26;;;;;;;3.42;2.20;;;18.90;1.00;;;;;;4838124;29;20061;-44
2023/05/05 05:28:53;;;;;;;2.58;1.92;;;18.90;1.00;;;;;;4840158;29;20106;-44
2023/05/05 05:31:20;;;;;;;4.28;2.53;;;18.90;1.00;;;;;;4824249;29;20062;-44
2023/05/05 05:33:47;;;;;;;3.55;2.35;;;18.90;1.00;;;;;;4826145;29;20053;-44
2023/05/05 05:36:14;;;;;;;6.80;2.53;;;18.90;1.00;;;;;;4839694;29;20069;-45
2023/05/05 05:38:41;;;;;;;4.93;2.33;;;18.90;1.00;;;;;;4840243;29;20089;-45
2023/05/05 05:41:08;;;;;;;4.97;2.47;;;18.90;1.00;;;;;;4841443;29;20499;-44
2023/05/05 05:43:36;;;;;;;2.65;2.10;;;18.90;1.00;;;;;;4841062;29;20451;-44
2023/05/05 05:46:04;;;;;;;5.97;2.53;;;18.90;1.00;;;;;;4839688;29;20074;-44
2023/05/05 05:48:35;;;;;;;3.78;2.10;;;18.90;1.00;;;;;;4839865;29;20141;-45
2023/05/05 05:51:02;;;;;;;5.78;2.88;;;18.90;1.00;;;;;;5005011;23;20042;-45
2023/05/05 05:53:29;;;;;;;6.35;2.38;;;18.90;1.00;;;;;;4829752;29;20054;-44
2023/05/05 05:55:56;;;;;;;3.10;2.40;;;18.90;1.00;;;;;;4832125;29;20046;-45
2023/05/05 05:58:23;;;;;;;6.22;2.80;;;18.90;1.00;;;;;;4838804;29;20069;-42
2023/05/05 06:00:50;;;;;;;3.17;2.55;;;18.90;1.00;;;;;;4833621;29;20133;-42
2023/05/05 06:03:17;;;;;;;3.28;2.90;;;18.90;1.00;;;;;;4841202;29;20080;-43
2023/05/05 06:05:47;;;;;;;4.97;2.92;;;19.00;1.00;;;;;;4839486;29;20106;-43
2023/05/05 06:08:14;;;;;;;5.93;2.70;;;18.90;1.00;;;;;;4832308;29;20050;-43
2023/05/05 06:10:47;;;;;;;4.15;2.45;;;19.00;1.00;;;;;;4825961;29;20074;-44
2023/05/05 06:13:17;;;;;;;5.78;2.83;;;19.00;1.00;;;;;;4841044;29;20104;-43
2023/05/05 06:15:47;;;;;;;3.88;2.47;;;19.00;1.00;;;;;;4843083;29;20456;-44
2023/05/05 06:18:15;;;;;;;8.55;2.67;;;19.00;1.00;;;;;;4843396;29;20054;-43
2023/05/05 06:20:42;;;;;;;4.85;2.42;;;19.00;1.00;;;;;;4940022;23;20082;-44
2023/05/05 06:23:10;;;;;;;4.90;2.83;;;19.00;1.00;;;;;;4835958;29;20053;-47
2023/05/05 06:25:42;;;;;;;3.75;2.15;;;19.00;1.00;;;;;;4835231;29;20414;-45
2023/05/05 06:28:08;;;;;;;8.75;3.08;;;19.00;1.00;;;;;;4844235;29;20038;-46
2023/05/05 06:30:35;;;;;;;4.05;2.65;;;19.10;1.00;;;;;;4836443;29;20570;-45
2023/05/05 06:33:02;;;;;;;10.40;5.32;;;19.10;1.00;;;;;;4844448;29;20102;-45
2023/05/05 06:35:29;;;;;;;12.85;7.30;;;19.10;1.00;;;;;;4836376;29;20037;-45
2023/05/05 06:37:55;;;;;;;11.27;6.93;;;19.10;1.00;;;;;;4839415;29;20469;-47
2023/05/05 06:40:22;;;;;;;13.95;7.25;;;19.10;1.00;;;;;;4841529;29;20046;-47
2023/05/05 06:42:49;;;;;;;14.73;7.22;;;19.10;1.00;;;;;;4842229;29;20052;-44
2023/05/05 06:45:21;;;;;;;11.82;6.45;;;19.10;1.00;;;;;;4839772;29;20053;-44
2023/05/05 06:47:48;;;;;;;15.75;7.93;;;19.20;1.00;;;;;;4837874;29;20099;-44
2023/05/05 06:53:21;;;;;;;11.32;6.65;;;19.20;1.00;;;;;;4799541;29;20054;-43
2023/05/05 06:55:48;;;;;;;12.20;6.45;;;19.20;1.00;;;;;;4796398;29;20043;-44
2023/05/05 06:58:15;;;;;;;10.02;7.30;;;19.20;1.00;;;;;;4804168;29;20039;-44
2023/05/05 07:00:42;;;;;;;8.90;6.15;;;19.20;1.00;;;;;;4799776;29;20049;-43
2023/05/05 07:03:09;;;;;;;9.77;6.60;;;19.20;1.00;;;;;;4807508;29;20096;-44
2023/05/05 07:05:36;;;;;;;9.50;6.93;;;19.30;1.00;;;;;;4799723;29;20059;-46
2023/05/05 07:08:03;;;;;;;9.98;5.72;;;19.30;1.00;;;;;;4807384;29;20039;-45
2023/05/05 07:10:30;;;;;;;10.77;6.65;;;19.30;1.00;;;;;;4799664;29;20099;-45
2023/05/05 07:12:57;;;;;;;11.70;6.38;;;19.30;1.00;;;;;;4807493;29;20073;-45
2023/05/05 07:15:24;;;;;;;11.38;6.00;;;19.30;1.00;;;;;;4806813;29;20119;-44
2023/05/05 07:17:55;;;;;;;10.00;5.90;;;19.40;1.00;;;;;;4807270;29;20047;-43
2023/05/05 07:20:22;;;;;;;11.52;5.45;;;19.40;1.00;;;;;;4807214;29;20062;-43
2023/05/05 07:22:50;;;;;;;9.00;5.32;;;19.40;1.00;;;;;;4832978;23;20047;-43
2023/05/05 07:25:16;;;;;;;9.60;5.00;;;19.40;1.00;;;;;;4839358;29;20481;-43
2023/05/05 07:27:43;;;;;;;10.13;5.20;;;19.40;1.00;;;;;;4834446;29;20054;-43
2023/05/05 07:30:10;;;;;;;11.52;5.10;;;19.40;1.00;;;;;;4843504;29;20042;-43
2023/05/05 07:32:43;;;;;;;8.50;4.20;;;19.50;1.00;;;;;;4835653;29;20391;-43
2023/05/05 07:35:10;;;;;;;8.10;4.10;;;19.50;1.00;;;;;;4843130;29;20078;-43
2023/05/05 07:37:36;;;;;;;7.07;3.92;;;19.50;1.00;;;;;;4843315;29;20443;-44
2023/05/05 07:40:04;;;;;;;8.38;4.20;;;19.50;1.00;;;;;;4835746;29;20045;-47
2023/05/05 07:42:30;;;;;;;9.05;4.32;;;19.50;1.00;;;;;;4843151;29;20050;-44
2023/05/05 07:44:57;;;;;;;10.38;3.08;;;19.60;1.00;;;;;;4843053;29;20046;-44
2023/05/05 07:47:24;;;;;;;6.45;3.38;;;19.60;1.00;;;;;;4843184;29;20451;-45
2023/05/05 07:49:51;;;;;;;6.07;3.35;;;19.60;1.00;;;;;;4843136;29;20490;-46
2023/05/05 07:52:17;;;;;;;7.00;3.38;;;19.60;1.00;;;;;;4843153;29;20061;-45
2023/05/05 07:54:53;;;;;;;5.28;3.08;;;19.70;1.00;;;;;;4842836;29;20046;-44
2023/05/05 07:57:19;;;;;;;11.13;3.47;;;19.70;1.00;;;;;;4835403;29;20498;-44
2023/05/05 07:59:46;;;;;;;9.55;4.55;;;19.70;1.00;;;;;;4842800;29;20044;-45
2023/05/05 08:02:13;;;;;;;9.32;2.58;;;19.80;1.00;;;;;;4842792;29;20510;-43
2023/05/05 08:04:41;;;;;;;6.88;3.03;;;19.80;1.00;;;;;;4842362;29;20060;-43
2023/05/05 08:07:09;;;;;;;7.88;2.63;;;19.80;1.00;;;;;;4842639;29;20046;-44
2023/05/05 08:09:37;;;;;;;8.82;3.08;;;19.90;1.00;;;;;;4842799;29;20448;-43
2023/05/05 08:12:04;;;;;;;5.63;2.28;;;19.90;1.00;;;;;;4842849;29;20038;-44
2023/05/05 08:14:31;;;;;;;11.25;2.25;;;19.90;1.00;;;;;;4842762;29;20045;-46
2023/05/05 08:16:58;;;;;;;7.45;2.13;;;19.90;1.00;;;;;;4842563;29;20502;-45
2023/05/05 08:19:25;;;;;;;3.55;2.38;;;19.90;1.00;;;;;;4842577;29;20054;-45
2023/05/05 08:24:50;;;;;;;3.38;1.95;;;20.00;1.00;;;;;;4950694;23;20054;-44
2023/05/05 08:27:17;;;;;;;4.10;1.80;;;20.00;1.00;;;;;;4816490;29;20122;-44
2023/05/05 08:29:44;;;;;;;8.40;2.38;;;20.00;1.00;;;;;;4816723;29;20073;-43
2023/05/05 08:32:11;;;;;;;2.42;1.77;;;20.00;1.00;;;;;;4824141;29;20043;-45
2023/05/05 08:34:38;;;;;;;3.70;1.77;;;20.00;1.00;;;;;;4816188;29;20095;-43
2023/05/05 08:37:04;;;;;;;3.97;1.63;;;20.00;1.00;;;;;;4824149;29;20074;-43
2023/05/05 08:39:31;;;;;;;4.82;2.38;;;20.10;1.00;;;;;;4816403;29;20050;-43
2023/05/05 08:41:58;;;;;;;3.33;1.98;;;20.00;1.00;;;;;;4816384;29;20054;-44
2023/05/05 08:44:25;;;;;;;3.95;2.17;;;20.10;1.00;;;;;;4823676;29;20050;-44
2023/05/05 08:46:53;;;;;;;4.43;1.92;;;20.10;1.00;;;;;;4816520;29;20046;-44
2023/05/05 08:49:21;;;;;;;2.78;1.77;;;20.10;1.00;;;;;;4823927;29;20095;-44
2023/05/05 08:51:50;;;;;;;3.97;2.30;;;20.10;1.00;;;;;;4824025;29;20046;-44
2023/05/05 08:54:19;;;;;;;5.35;2.03;;;20.10;1.00;;;;;;4823732;29;20443;-44
2023/05/05 08:56:49;;;;;;;4.70;1.73;;;20.10;1.00;;;;;;4815579;29;20057;-43
2023/05/05 08:59:17;;;;;;;3.15;1.58;;;20.10;1.00;;;;;;4814844;29;20047;-44
2023/05/05 09:01:44;;;;;;;5.47;1.98;;;20.00;1.00;;;;;;4815981;29;20050;-43
2023/05/05 09:04:11;;;;;;;5.53;1.92;;;20.00;1.00;;;;;;4823518;29;20474;-44
2023/05/05 09:06:38;;;;;;;5.30;1.52;;;20.00;1.00;;;;;;4816210;29;20054;-43
2023/05/05 09:09:05;;;;;;;6.88;1.67;;;20.00;1.00;;;;;;4823677;29;20039;-45
2023/05/05 09:11:34;;;;;;;4.63;1.80;;;20.00;1.00;;;;;;4823168;29;20121;-43
2023/05/05 09:14:00;;;;;;;2.47;1.83;;;20.00;1.00;;;;;;4815949;29;20111;-44
2023/05/05 09:16:27;;;;;;;4.55;1.80;;;20.00;1.00;;;;;;4823428;29;20117;-44
2023/05/05 09:19:02;;;;;;;4.90;1.65;;;20.00;1.00;;;;;;4823677;29;20126;-46
2023/05/05 09:21:29;;;;;;;5.03;1.70;;;20.00;1.00;;;;;;4823249;29;20046;-45
2023/05/05 09:24:07;;;;;;;6.57;2.40;;;20.00;1.00;;;;;;4823281;29;20075;-44
2023/05/05 09:26:38;;;;;;;4.35;1.60;;;20.00;1.00;;;;;;4902652;23;20113;-44
2023/05/05 09:29:05;;;;;;;4.22;1.80;;;20.00;1.00;;;;;;4833306;29;20043;-42
2023/05/05 09:31:33;;;;;;;5.45;1.90;;;20.00;1.00;;;;;;4838684;29;20106;-43
2023/05/05 09:34:00;;;;;;;6.43;2.20;;;20.00;1.00;;;;;;4841096;29;20038;-42
2023/05/05 09:36:43;;;;;;;5.43;1.70;;;20.00;1.00;;;;;;4840968;29;20054;-43
2023/05/05 09:39:10;;;;;;;4.65;1.98;;;20.00;1.00;;;;;;4841364;29;20048;-43
2023/05/05 09:41:42;;;;;;;6.93;2.28;;;20.00;1.00;;;;;;4841020;29;20053;-44
2023/05/05 09:44:11;;;;;;;3.85;2.13;;;20.00;1.00;;;;;;4840950;29;20049;-45
2023/05/05 09:46:47;;;;;;;6.43;2.47;;;20.00;1.00;;;;;;4840880;29;20069;-43
2023/05/05 09:49:19;;;;;;;9.00;2.47;;;19.90;1.00;;;;;;4840777;29;20038;-43
2023/05/05 09:51:46;;;;;;;10.65;2.40;;;19.90;1.00;;;;;;4840767;29;20046;-43
2023/05/05 09:54:27;;;;;;;3.45;2.20;;;19.90;1.00;;;;;;4832291;29;20061;-43
2023/05/05 09:56:55;;;;;;;6.57;2.20;;;19.90;1.00;;;;;;4830661;29;20070;-45
2023/05/05 09:59:23;;;;;;;4.03;1.80;;;19.90;1.00;;;;;;4837590;29;20052;-46
2023/05/05 10:01:50;;;;;;;4.20;1.65;;;19.90;1.00;;;;;;4841057;29;20042;-44
2023/05/05 10:04:28;;;;;;;4.38;2.20;;;19.90;1.00;;;;;;4840838;29;20186;-44
2023/05/05 10:06:56;;;;;;;4.57;1.88;;;19.90;1.00;;;;;;4841068;29;20046;-43
2023/05/05 10:09:24;;;;;;;6.35;2.50;;;19.90;1.00;;;;;;4841279;29;20049;-44
2023/05/05 10:11:52;;;;;;;6.32;2.13;;;19.90;1.00;;;;;;4841498;29;20098;-43
2023/05/05 10:14:19;;;;;;;7.47;1.75;;;19.90;1.00;;;;;;4841028;29;20042;-44
2023/05/05 10:16:49;;;;;;;5.07;1.90;;;19.90;1.00;;;;;;4840674;29;20523;-44
2023/05/05 10:19:18;;;;;;;5.95;2.40;;;19.90;1.00;;;;;;4841010;29;20503;-47
2023/05/05 10:21:52;;;;;;;4.38;2.53;;;19.90;1.00;;;;;;4841035;29;20050;-43
2023/05/05 10:24:38;;;;;;;6.35;2.33;;;19.90;1.00;;;;;;4840750;29;20042;-44
2023/05/05 10:27:23;;;;;;;5.40;1.70;;;19.80;1.00;;;;;;4880039;23;20054;-45
2023/05/05 10:30:00;;;;;;;5.50;2.13;;;19.90;1.00;;;;;;4837691;29;20058;-42
2023/05/05 10:32:42;;;;;;;4.10;1.88;;;19.80;1.00;;;;;;4829705;29;20046;-43
2023/05/05 10:35:16;;;;;;;6.68;2.15;;;19.80;1.00;;;;;;4824201;29;20107;-44
2023/05/05 10:37:44;;;;;;;7.55;3.63;;;19.80;1.00;;;;;;4813590;29;20039;-44
2023/05/05 10:40:12;;;;;;;4.63;1.80;;;19.80;1.00;;;;;;4816916;29;20046;-43
2023/05/05 10:42:39;;;;;;;4.18;1.85;;;19.80;1.00;;;;;;4822662;29;20050;-43
2023/05/05 10:45:07;;;;;;;3.70;1.75;;;19.80;1.00;;;;;;4822365;29;20388;-45
2023/05/05 10:47:35;;;;;;;3.55;1.88;;;19.80;1.00;;;;;;4813599;29;20055;-43
2023/05/05 10:50:12;;;;;;;5.20;1.50;;;19.80;1.00;;;;;;4822593;29;20091;-43
2023/05/05 10:52:47;;;;;;;6.65;1.65;;;19.80;1.00;;;;;;4822490;29;20054;-43
2023/05/05 10:55:45;;;;;;;3.30;1.52;;;19.80;1.00;;;;;;4822164;29;20094;-44
2023/05/05 10:58:34;;;;;;;4.20;1.35;;;19.70;1.00;;;;;;5071762;23;20515;-44
2023/05/05 11:01:29;;;;;;;8.23;2.05;;;19.70;1.00;;;;;;4837143;29;20133;-45
2023/05/05 11:04:19;;;;;;;10.15;2.13;;;19.70;1.00;;;;;;4843950;29;20490;-43
2023/05/05 11:07:07;;;;;;;4.97;1.55;;;19.70;1.00;;;;;;4843470;29;20054;-46
2023/05/05 11:09:57;;;;;;;4.28;1.38;;;19.70;1.00;;;;;;4843741;29;20049;-43
2023/05/05 11:12:24;;;;;;;9.40;1.67;;;19.70;1.00;;;;;;4843751;29;20406;-44
2023/05/05 11:15:25;;;;;;;5.38;2.08;;;19.70;1.00;;;;;;4836184;29;20110;-43
2023/05/05 11:17:53;;;;;;;4.25;1.35;;;19.70;1.00;;;;;;4831468;29;20077;-43
2023/05/05 11:20:35;;;;;;;4.28;2.05;;;19.70;1.00;;;;;;4833692;29;20076;-43
2023/05/05 11:23:02;;;;;;;3.25;1.42;;;19.70;1.00;;;;;;4833194;29;20509;-44
2023/05/05 11:25:37;;;;;;;5.20;1.73;;;19.70;1.00;;;;;;4843575;29;20046;-43
2023/05/05 11:28:09;;;;;;;4.50;1.50;;;19.70;1.00;;;;;;4826087;29;20046;-44
2023/05/05 11:30:55;;;;;;;5.03;1.60;;;19.60;1.00;;;;;;4850486;23;20079;-44
2023/05/05 11:33:37;;;;;;;4.03;1.52;;;19.70;1.00;;;;;;4827849;29;20512;-44
2023/05/05 11:36:09;;;;;;;9.23;1.75;;;19.60;1.00;;;;;;4827866;29;20054;-42
2023/05/05 11:38:55;;;;;;;3.38;1.30;;;19.60;1.00;;;;;;4828985;29;20038;-48
2023/05/05 11:41:31;;;;;;;4.07;1.23;;;19.60;1.00;;;;;;4835619;29;20038;-43
2023/05/05 11:44:13;;;;;;;7.22;2.65;;;19.60;1.00;;;;;;4842688;29;20050;-43
2023/05/05 11:46:49;;;;;;;7.15;1.92;;;19.60;1.00;;;;;;4834998;29;20054;-43
2023/05/05 11:49:31;;;;;;;3.78;1.73;;;19.60;1.00;;;;;;4842976;29;20038;-43
2023/05/05 11:52:06;;;;;;;4.45;2.25;;;19.60;1.00;;;;;;4842852;29;20052;-43
2023/05/05 11:54:35;;;;;;;7.68;2.47;;;19.50;1.00;;;;;;4835039;29;20042;-44
2023/05/05 11:57:07;;;;;;;3.83;1.70;;;19.50;1.00;;;;;;4842647;29;20080;-44
2023/05/05 11:59:36;;;;;;;3.42;1.55;;;19.60;1.00;;;;;;4843295;29;20042;-44
2023/05/05 12:02:03;;;;;;;6.57;1.98;;;19.50;1.00;;;;;;4971592;23;20050;-43
2023/05/05 12:04:31;;;;;;;5.15;1.85;;;19.50;1.00;;;;;;4823329;29;20049;-43
2023/05/05 12:06:58;;;;;;;6.80;1.98;;;19.50;1.00;;;;;;4824074;29;20041;-44
2023/05/05 12:09:26;;;;;;;4.50;2.05;;;19.50;1.00;;;;;;4824593;29;20499;-43
2023/05/05 12:11:55;;;;;;;3.65;2.42;;;19.50;1.00;;;;;;4816519;29;20047;-43
2023/05/05 12:14:23;;;;;;;4.15;2.05;;;19.50;1.00;;;;;;4824635;29;20046;-47
2023/05/05 12:16:56;;;;;;;8.00;2.58;;;19.50;1.00;;;;;;4824396;29;20692;-43
2023/05/05 12:19:31;;;;;;;5.47;2.28;;;19.40;1.00;;;;;;4824167;29;20042;-44
2023/05/05 12:22:03;;;;;;;9.15;2.95;;;19.50;1.00;;;;;;4824359;29;20048;-44
2023/05/05 12:24:30;;;;;;;5.15;2.63;;;19.40;1.00;;;;;;4824334;29;20129;-42
2023/05/05 12:27:10;;;;;;;6.47;2.30;;;19.40;1.00;;;;;;4824153;29;20058;-43
2023/05/05 12:29:37;;;;;;;6.30;2.00;;;19.40;1.00;;;;;;4824145;29;20051;-43
2023/05/05 12:32:04;;;;;;;7.20;2.47;;;19.40;1.00;;;;;;4825225;29;20043;-42
2023/05/05 12:34:31;;;;;;;4.85;2.30;;;19.40;1.00;;;;;;4823777;29;20047;-42
2023/05/05 12:36:59;;;;;;;5.10;2.10;;;19.40;1.00;;;;;;4823968;29;20046;-43
2023/05/05 12:39:35;;;;;;;4.82;2.67;;;19.40;1.00;;;;;;4824025;29;20073;-46
2023/05/05 12:42:03;;;;;;;3.30;1.83;;;19.40;1.00;;;;;;4820824;29;20051;-42
2023/05/05 12:44:35;;;;;;;5.47;1.80;;;19.40;1.00;;;;;;4819689;29;20099;-44
2023/05/05 12:47:02;;;;;;;4.53;1.85;;;19.40;1.00;;;;;;4823856;29;20099;-45
2023/05/05 12:49:32;;;;;;;5.05;1.75;;;19.40;1.00;;;;;;4823968;29;20594;-43
2023/05/05 12:51:59;;;;;;;6.80;1.92;;;19.40;1.00;;;;;;4823818;29;20046;-43
2023/05/05 12:54:29;;;;;;;4.78;1.88;;;19.50;1.00;;;;;;4823666;29;20042;-42
2023/05/05 12:56:57;;;;;;;3.70;1.38;;;19.50;1.00;;;;;;4823641;29;20043;-44
2023/05/05 12:59:24;;;;;;;7.00;1.80;;;19.50;1.00;;;;;;4817883;29;20404;-43
2023/05/05 13:01:57;;;;;;;4.97;2.13;;;19.50;1.00;;;;;;4907894;23;20052;31
2023/05/05 13:04:25;;;;;;;;;;;19.50;1.00;;;;;;4795226;29;20047;-43
2023/05/05 13:07:07;;;;;;;4.72;2.03;;;19.40;1.00;;;;;;4795854;29;19972;-45
2023/05/05 13:09:34;;;;;;;5.40;2.17;;;19.40;1.00;;;;;;4794979;29;20424;-44
2023/05/05 13:12:02;;;;;;;6.60;2.47;;;19.40;1.00;;;;;;4790894;29;20050;-44
2023/05/05 13:14:32;;;;;;;8.63;1.88;;;19.50;1.00;;;;;;4819380;29;20050;-43
2023/05/05 13:16:59;;;;;;;4.60;1.75;;;19.50;1.00;;;;;;4805231;29;20053;-45
2023/05/05 13:19:26;;;;;;;3.38;1.65;;;19.50;1.00;;;;;;4805245;29;20043;-44
2023/05/05 13:21:55;;;;;;;3.58;1.60;;;19.50;1.00;;;;;;4797317;29;20504;-44
2023/05/05 13:24:23;;;;;;;3.88;1.15;;;19.50;1.00;;;;;;4804962;29;20051;-45
2023/05/05 13:27:04;;;;;;;2.50;1.23;;;19.50;1.00;;;;;;4805346;29;20503;-45